Time;durP1;ratioP1;P1;durP2;ratioP2;P2;SDS_P1;SDS_P2;PMS_P1;PMS_P2;Temp;Humidity;BMP_temperature;BMP_pressure;BME280_temperature;BME280_humidity;BME280_pressure;Samples;Min_cycle;Max_cycle;Signal;HPM_P1;HPM_P2
2022/11/24 00:02:09;;;;;;;14.90;2.95;;;12.70;99.90;;;;;;4994227;28;25126;-75
2022/11/24 00:04:34;;;;;;;21.08;3.10;;;12.80;99.90;;;;;;4999986;28;25113;-77
2022/11/24 00:07:00;;;;;;;20.65;3.85;;;12.70;99.90;;;;;;4983887;28;25068;-74
2022/11/24 00:09:26;;;;;;;14.75;3.20;;;12.70;99.90;;;;;;4992649;28;25133;-75
2022/11/24 00:11:51;;;;;;;17.88;4.00;;;12.70;99.90;;;;;;4989480;28;25097;-76
2022/11/24 00:14:17;;;;;;;15.63;5.00;;;12.60;99.90;;;;;;4992303;28;25148;-75
2022/11/24 00:16:43;;;;;;;16.30;3.70;;;12.50;99.90;;;;;;4993421;28;25059;-76
2022/11/24 00:19:08;;;;;;;20.73;3.83;;;12.50;99.90;;;;;;4997177;28;25088;-76
2022/11/24 00:21:35;;;;;;;12.77;2.88;;;12.40;99.90;;;;;;4988699;28;25059;-75
2022/11/24 00:24:01;;;;;;;18.85;3.90;;;12.40;99.90;;;;;;4997083;28;25059;-75
2022/11/24 00:26:29;;;;;;;24.73;3.80;;;12.30;99.90;;;;;;4998350;28;25060;-74
2022/11/24 00:29:01;;;;;;;16.42;2.28;;;12.30;99.90;;;;;;4985154;28;25101;-74
2022/11/24 00:31:32;;;;;;;17.40;3.25;;;12.20;99.90;;;;;;4981816;28;25116;-74
2022/11/24 00:34:00;;;;;;;16.50;4.47;;;12.10;99.90;;;;;;4993704;28;25056;-75
2022/11/24 00:36:28;;;;;;;12.82;2.83;;;12.10;99.90;;;;;;4997159;28;25054;-75
2022/11/24 00:38:56;;;;;;;16.98;3.22;;;12.10;99.90;;;;;;4986442;28;25066;-75
2022/11/24 00:41:23;;;;;;;15.55;2.53;;;12.00;99.90;;;;;;4997616;28;25067;-75
2022/11/24 00:43:49;;;;;;;15.10;3.13;;;12.10;99.90;;;;;;4985951;28;25061;-75
2022/11/24 00:46:15;;;;;;;16.13;3.65;;;12.00;99.90;;;;;;4985762;28;25059;-75
2022/11/24 00:48:41;;;;;;;14.70;2.80;;;12.00;99.90;;;;;;5000370;28;25073;-74
2022/11/24 00:51:09;;;;;;;10.63;2.75;;;11.90;99.90;;;;;;4985880;28;25076;-75
2022/11/24 00:53:35;;;;;;;27.13;3.15;;;11.90;99.90;;;;;;4991546;28;25102;-75
2022/11/24 00:56:02;;;;;;;15.13;3.03;;;11.90;99.90;;;;;;4991576;28;25104;-74
2022/11/24 00:58:29;;;;;;;11.93;2.63;;;11.90;99.90;;;;;;4978255;28;25138;-76
2022/11/24 01:00:59;;;;;;;10.02;2.42;;;11.90;99.90;;;;;;4971868;28;25088;-74
2022/11/24 01:03:25;;;;;;;14.80;2.58;;;11.80;99.90;;;;;;5007765;28;25057;-75
2022/11/24 01:05:51;;;;;;;15.45;2.88;;;11.80;99.90;;;;;;5029246;28;25062;-75
2022/11/24 01:08:16;;;;;;;12.57;2.53;;;11.80;99.90;;;;;;5010367;28;25151;-75
2022/11/24 01:10:42;;;;;;;14.32;2.33;;;11.80;99.90;;;;;;5005523;28;25091;-75
2022/11/24 01:13:08;;;;;;;17.00;4.05;;;11.80;99.90;;;;;;4999512;28;25088;-75
2022/11/24 01:15:35;;;;;;;11.85;2.78;;;11.80;99.90;;;;;;4989913;28;25107;-76
2022/11/24 01:18:01;;;;;;;19.75;2.72;;;11.80;99.90;;;;;;4987720;28;25089;-75
2022/11/24 01:20:26;;;;;;;11.95;3.15;;;11.70;99.90;;;;;;4985721;28;25115;-75
2022/11/24 01:22:52;;;;;;;20.13;2.95;;;11.70;99.90;;;;;;4995429;28;25076;-75
2022/11/24 01:25:18;;;;;;;14.50;2.92;;;11.70;99.90;;;;;;4995910;28;25067;-75
2022/11/24 01:27:43;;;;;;;18.30;3.40;;;11.70;99.90;;;;;;4983348;28;25056;-74
2022/11/24 01:30:09;;;;;;;19.17;2.75;;;11.70;99.90;;;;;;4994257;28;25072;-75
2022/11/24 01:32:36;;;;;;;22.15;2.72;;;11.60;99.90;;;;;;4986658;28;25083;-74
2022/11/24 01:35:04;;;;;;;23.88;3.42;;;11.60;99.90;;;;;;4994756;28;25079;-74
2022/11/24 01:37:29;;;;;;;15.40;2.63;;;11.60;99.90;;;;;;5005551;28;25129;-76
2022/11/24 01:39:55;;;;;;;13.48;3.30;;;11.70;99.90;;;;;;4999048;28;25089;-75
2022/11/24 01:42:21;;;;;;;17.85;2.72;;;11.60;99.90;;;;;;4995446;28;25061;-74
2022/11/24 01:44:50;;;;;;;17.15;3.47;;;11.70;99.90;;;;;;5007102;28;25111;-75
2022/11/24 01:47:34;;;;;;;14.05;2.78;;;11.60;99.90;;;;;;5010068;28;25075;-75
2022/11/24 01:50:02;;;;;;;12.73;2.58;;;11.60;99.90;;;;;;4990279;28;25061;-75
2022/11/24 01:52:36;;;;;;;16.38;2.72;;;11.60;99.90;;;;;;4989210;28;25075;-75
2022/11/24 01:55:07;;;;;;;17.58;2.88;;;11.50;99.90;;;;;;4992189;28;25052;-75
2022/11/24 01:57:41;;;;;;;16.25;3.50;;;11.50;99.90;;;;;;5001475;28;25064;-75
2022/11/24 02:00:11;;;;;;;15.85;2.72;;;11.40;99.90;;;;;;4985703;28;25070;-73
2022/11/24 02:02:38;;;;;;;18.50;2.75;;;11.40;99.90;;;;;;4978403;28;25077;-75
2022/11/24 02:05:20;;;;;;;17.73;2.58;;;11.40;99.90;;;;;;4999253;28;25102;-75
2022/11/24 02:07:47;;;;;;;17.88;3.10;;;11.30;99.90;;;;;;4995255;28;25099;-75
2022/11/24 02:10:15;;;;;;;10.90;2.35;;;11.30;99.90;;;;;;4992678;28;25090;-75
2022/11/24 02:12:45;;;;;;;7.13;2.03;;;11.30;99.90;;;;;;5000231;28;25039;-75
2022/11/24 02:15:14;;;;;;;13.23;2.45;;;11.30;99.90;;;;;;4987858;28;25127;-74
2022/11/24 02:17:39;;;;;;;13.18;2.83;;;11.20;99.90;;;;;;4995971;28;25091;-75
2022/11/24 02:20:07;;;;;;;13.13;2.40;;;11.20;99.90;;;;;;4996495;28;25053;-75
2022/11/24 02:22:50;;;;;;;13.23;2.15;;;11.20;99.90;;;;;;5000129;28;25105;-75
2022/11/24 02:25:18;;;;;;;6.03;1.80;;;11.10;99.90;;;;;;4998661;28;25114;-75
2022/11/24 02:27:44;;;;;;;9.10;1.95;;;11.00;99.90;;;;;;5001185;28;25070;-75
2022/11/24 02:30:10;;;;;;;10.30;1.90;;;10.90;99.90;;;;;;5023341;28;25067;-74
2022/11/24 02:32:40;;;;;;;7.35;1.42;;;10.90;99.90;;;;;;4992338;28;25066;-75
2022/11/24 02:35:07;;;;;;;3.85;1.90;;;10.80;99.90;;;;;;4995981;28;25077;-72
2022/11/24 02:37:33;;;;;;;3.47;1.35;;;10.70;99.90;;;;;;5008955;28;25088;-74
2022/11/24 02:39:58;;;;;;;3.42;1.10;;;10.70;99.90;;;;;;4999025;28;25192;-73
2022/11/24 02:42:27;;;;;;;7.97;0.90;;;10.70;99.90;;;;;;5010518;28;25054;-75
2022/11/24 02:44:57;;;;;;;7.07;1.30;;;10.60;99.90;;;;;;4999372;28;25055;-75
2022/11/24 02:47:23;;;;;;;2.97;1.45;;;10.50;99.90;;;;;;5002774;28;25071;-74
2022/11/24 02:49:48;;;;;;;11.75;1.70;;;10.50;99.90;;;;;;4998069;28;25045;-76
2022/11/24 02:52:14;;;;;;;4.25;1.63;;;10.60;99.90;;;;;;4991225;28;25081;-74
2022/11/24 02:54:40;;;;;;;6.88;1.98;;;10.60;99.90;;;;;;4990805;28;25070;-75
2022/11/24 02:57:06;;;;;;;10.32;1.88;;;10.60;99.90;;;;;;4991816;28;25144;-74
2022/11/24 02:59:32;;;;;;;17.30;2.38;;;10.60;99.90;;;;;;4992528;28;25076;-74
2022/11/24 03:01:58;;;;;;;17.75;2.78;;;10.70;99.90;;;;;;4999319;28;25133;-72
2022/11/24 03:04:23;;;;;;;17.00;2.40;;;10.70;99.90;;;;;;5005018;28;25124;-73
2022/11/24 03:06:49;;;;;;;19.25;3.42;;;10.80;99.90;;;;;;4990660;28;25150;-75
2022/11/24 03:09:15;;;;;;;9.85;2.00;;;10.90;99.90;;;;;;5009794;28;25164;-74
2022/11/24 03:11:40;;;;;;;13.40;2.90;;;11.00;99.90;;;;;;4990822;28;25109;-74
2022/11/24 03:14:07;;;;;;;13.27;2.33;;;11.00;99.90;;;;;;4998270;28;25160;-75
2022/11/24 03:16:32;;;;;;;15.32;4.43;;;11.10;99.90;;;;;;5001994;28;25097;-75
2022/11/24 03:18:59;;;;;;;26.60;5.18;;;11.10;99.90;;;;;;4993605;28;25094;-75
2022/11/24 03:21:24;;;;;;;15.30;2.72;;;11.20;99.90;;;;;;5015583;28;25063;-75
2022/11/24 03:23:52;;;;;;;23.02;3.20;;;11.30;99.90;;;;;;4993165;28;25085;-75
2022/11/24 03:26:20;;;;;;;19.83;4.28;;;11.30;99.90;;;;;;4989686;28;25060;-75
2022/11/24 03:28:46;;;;;;;11.25;2.95;;;11.20;99.90;;;;;;5001604;28;25075;-75
2022/11/24 03:31:12;;;;;;;17.73;3.83;;;11.20;99.90;;;;;;4995645;28;25078;-76
2022/11/24 03:33:38;;;;;;;12.70;2.33;;;11.20;99.90;;;;;;4986870;28;25043;-75
2022/11/24 03:36:05;;;;;;;17.23;3.67;;;11.20;99.90;;;;;;4991335;28;25070;-79
2022/11/24 03:38:31;;;;;;;21.65;3.47;;;11.20;99.90;;;;;;4999384;28;25079;-73
2022/11/24 03:40:57;;;;;;;13.40;3.17;;;11.20;99.90;;;;;;4990288;28;25079;-74
2022/11/24 03:43:22;;;;;;;16.05;3.95;;;11.20;99.90;;;;;;4988611;28;25047;-76
2022/11/24 03:45:49;;;;;;;13.00;3.25;;;11.30;99.90;;;;;;4994852;28;25047;-75
2022/11/24 03:48:16;;;;;;;20.10;4.72;;;11.30;99.90;;;;;;4999026;28;25119;-75
2022/11/24 03:50:42;;;;;;;19.20;3.92;;;11.40;99.90;;;;;;4992451;28;25145;-74
2022/11/24 03:53:08;;;;;;;10.82;2.65;;;11.50;99.90;;;;;;5011195;28;25084;-74
2022/11/24 03:55:34;;;;;;;26.55;3.70;;;11.50;99.90;;;;;;4995798;28;25056;-74
2022/11/24 03:58:00;;;;;;;14.15;3.30;;;11.50;99.90;;;;;;4989452;28;25066;-75
2022/11/24 04:00:26;;;;;;;17.42;3.17;;;11.60;99.90;;;;;;4994376;28;25144;-75
2022/11/24 04:02:52;;;;;;;13.05;3.15;;;11.70;99.90;;;;;;4992818;28;25077;-76
2022/11/24 04:05:18;;;;;;;15.45;2.35;;;11.70;99.90;;;;;;5009187;28;25107;-74
2022/11/24 04:07:44;;;;;;;13.75;2.20;;;11.80;99.90;;;;;;4987111;28;25110;-73
2022/11/24 04:10:09;;;;;;;10.60;2.40;;;11.70;99.90;;;;;;4990711;28;25149;-73
2022/11/24 04:12:44;;;;;;;14.27;1.70;;;11.80;99.90;;;;;;4987278;28;25137;-74
2022/11/24 04:15:18;;;;;;;7.32;2.03;;;11.80;99.90;;;;;;4983102;28;25104;-74
2022/11/24 04:17:45;;;;;;;11.25;2.08;;;11.80;99.90;;;;;;4984120;28;25108;-75
2022/11/24 04:20:12;;;;;;;5.78;1.35;;;11.90;99.90;;;;;;4983129;28;25099;-74
2022/11/24 04:22:38;;;;;;;9.70;1.90;;;12.00;99.90;;;;;;4986739;28;25064;-74
2022/11/24 04:25:05;;;;;;;10.95;2.03;;;12.10;99.90;;;;;;4984786;28;25051;-74
2022/11/24 04:27:34;;;;;;;11.50;2.28;;;12.20;99.90;;;;;;4991621;28;25069;-75
2022/11/24 04:30:00;;;;;;;7.10;1.50;;;12.30;99.90;;;;;;4992742;28;25070;-74
2022/11/24 04:32:25;;;;;;;12.70;2.30;;;12.40;99.90;;;;;;4993772;28;25059;-74
2022/11/24 04:34:51;;;;;;;10.90;1.95;;;12.50;99.90;;;;;;5006663;28;25060;-75
2022/11/24 04:37:17;;;;;;;6.70;1.90;;;12.50;99.90;;;;;;5003740;28;25059;-76
2022/11/24 04:39:43;;;;;;;10.57;2.05;;;12.50;99.90;;;;;;5004181;28;25057;-76
2022/11/24 04:42:09;;;;;;;17.27;1.80;;;12.50;99.90;;;;;;5017225;28;25090;-75
2022/11/24 04:44:34;;;;;;;7.20;2.15;;;12.50;99.90;;;;;;5012569;28;25131;-75
2022/11/24 04:47:00;;;;;;;7.53;2.42;;;12.50;99.90;;;;;;5010093;28;25076;-76
2022/11/24 04:49:26;;;;;;;4.70;1.15;;;12.60;99.90;;;;;;4990173;28;25175;-76
2022/11/24 04:51:51;;;;;;;2.65;0.98;;;12.60;99.90;;;;;;4991944;28;25060;-75
2022/11/24 04:54:17;;;;;;;6.88;1.10;;;12.60;99.90;;;;;;4993162;28;25068;-76
2022/11/24 04:56:43;;;;;;;6.38;1.13;;;12.60;99.90;;;;;;5005947;28;25098;-74
2022/11/24 04:59:13;;;;;;;4.20;1.77;;;12.70;99.90;;;;;;5002674;28;25069;-76
2022/11/24 05:01:45;;;;;;;4.65;1.00;;;12.80;99.90;;;;;;4985275;28;25069;-76
2022/11/24 05:04:12;;;;;;;2.63;0.88;;;12.80;99.90;;;;;;4981351;28;25131;-77
2022/11/24 05:06:38;;;;;;;6.68;1.35;;;13.00;99.90;;;;;;4984129;28;25138;-76
2022/11/24 05:09:05;;;;;;;5.63;1.27;;;13.10;99.90;;;;;;4983234;28;25095;-75
2022/11/24 05:11:30;;;;;;;6.82;1.80;;;13.10;99.90;;;;;;4986772;28;25105;-75
2022/11/24 05:13:56;;;;;;;5.30;1.40;;;13.10;99.90;;;;;;4984168;28;25101;-76
2022/11/24 05:16:21;;;;;;;3.00;1.30;;;13.10;99.90;;;;;;4990461;28;25077;-76
2022/11/24 05:18:47;;;;;;;5.65;1.80;;;13.30;99.90;;;;;;4987894;28;25081;-76
2022/11/24 05:21:13;;;;;;;8.98;2.58;;;13.30;99.90;;;;;;4981828;28;25179;-77
2022/11/24 05:23:38;;;;;;;4.93;1.85;;;13.40;99.90;;;;;;4993175;28;25117;-77
2022/11/24 05:26:04;;;;;;;9.60;2.00;;;13.60;99.90;;;;;;5006607;28;25103;-77
2022/11/24 05:28:31;;;;;;;3.70;1.90;;;13.60;99.90;;;;;;4992485;28;25066;-75
2022/11/24 05:31:00;;;;;;;5.45;1.90;;;13.60;99.90;;;;;;4989648;28;25062;-76
2022/11/24 05:33:27;;;;;;;7.90;2.47;;;13.70;99.90;;;;;;4984984;28;25143;-76
2022/11/24 05:35:53;;;;;;;5.38;2.03;;;13.70;99.90;;;;;;4999850;28;25074;-76
2022/11/24 05:38:21;;;;;;;13.27;2.88;;;13.60;99.90;;;;;;4996663;28;25100;-77
2022/11/24 05:40:47;;;;;;;12.80;2.60;;;13.70;99.90;;;;;;4985507;28;25143;-76
2022/11/24 05:43:14;;;;;;;5.88;2.45;;;13.80;99.90;;;;;;4992452;28;25070;-76
2022/11/24 05:45:41;;;;;;;9.82;2.60;;;13.90;99.90;;;;;;4982755;28;25090;-77
2022/11/24 05:48:10;;;;;;;6.90;2.38;;;14.20;99.90;;;;;;4985716;28;25080;-77
2022/11/24 05:50:35;;;;;;;10.98;2.53;;;14.20;99.90;;;;;;4987269;28;25067;-76
2022/11/24 05:53:03;;;;;;;6.32;2.63;;;13.90;99.90;;;;;;5003344;28;25081;-76
2022/11/24 05:55:29;;;;;;;4.93;2.63;;;13.90;99.90;;;;;;4984659;28;25056;-77
2022/11/24 05:57:59;;;;;;;7.05;2.33;;;13.80;99.90;;;;;;4996617;28;25058;-77
2022/11/24 06:00:26;;;;;;;12.50;2.47;;;13.70;99.90;;;;;;4996774;28;25060;-77
2022/11/24 06:02:51;;;;;;;11.45;2.47;;;13.80;99.90;;;;;;4983870;28;25161;-75
2022/11/24 06:05:17;;;;;;;5.18;2.42;;;13.80;99.90;;;;;;4983745;28;25093;-75
2022/11/24 06:07:42;;;;;;;6.70;3.22;;;13.80;99.90;;;;;;4981348;28;25063;-75
2022/11/24 06:10:09;;;;;;;12.80;3.38;;;13.80;99.90;;;;;;5002140;28;25096;-73
2022/11/24 06:12:34;;;;;;;11.10;3.78;;;13.80;99.90;;;;;;4991008;28;25094;-71
2022/11/24 06:15:00;;;;;;;9.32;3.50;;;13.80;99.90;;;;;;4992747;28;25104;-76
2022/11/24 06:17:26;;;;;;;12.18;3.67;;;13.50;99.90;;;;;;4988833;28;25088;-75
2022/11/24 06:19:51;;;;;;;11.07;3.47;;;13.60;99.90;;;;;;4991310;28;25085;-75
2022/11/24 06:22:18;;;;;;;8.18;3.63;;;13.60;99.90;;;;;;4987056;28;25048;-73
2022/11/24 06:24:45;;;;;;;9.68;3.65;;;13.60;99.90;;;;;;4987513;28;25063;-75
2022/11/24 06:27:11;;;;;;;7.65;3.00;;;13.70;99.90;;;;;;4982318;28;25070;-75
2022/11/24 06:29:37;;;;;;;9.80;3.17;;;13.70;99.90;;;;;;4989986;28;25139;-75
2022/11/24 06:32:04;;;;;;;9.20;3.67;;;13.70;99.90;;;;;;4989224;28;25076;-72
2022/11/24 06:34:29;;;;;;;10.07;3.40;;;13.70;99.90;;;;;;5007699;28;25050;-74
2022/11/24 06:36:55;;;;;;;10.52;2.88;;;13.70;99.90;;;;;;5004778;28;25132;-75
2022/11/24 06:39:21;;;;;;;5.95;2.72;;;13.80;99.90;;;;;;5023480;28;25090;-74
2022/11/24 06:41:49;;;;;;;11.70;3.15;;;13.90;99.90;;;;;;4991920;28;25074;-75
2022/11/24 06:44:15;;;;;;;11.10;3.33;;;13.90;99.90;;;;;;4990148;28;25074;-76
2022/11/24 06:46:40;;;;;;;10.90;3.20;;;14.00;99.90;;;;;;4987031;28;25134;-75
2022/11/24 06:49:06;;;;;;;8.65;2.95;;;14.00;99.90;;;;;;4988482;28;25060;-74
2022/11/24 06:51:32;;;;;;;13.30;2.88;;;14.10;99.90;;;;;;5004493;28;25085;-76
2022/11/24 06:53:58;;;;;;;10.43;2.92;;;14.10;99.90;;;;;;4993806;28;25082;-75
2022/11/24 06:56:24;;;;;;;7.72;2.45;;;14.10;99.90;;;;;;5001414;28;25080;-74
2022/11/24 06:58:51;;;;;;;9.98;3.15;;;14.10;99.90;;;;;;4996270;28;25074;-73
2022/11/24 07:01:22;;;;;;;14.90;3.20;;;14.10;99.90;;;;;;4988425;28;25142;-74
2022/11/24 07:03:48;;;;;;;13.43;3.20;;;14.30;99.90;;;;;;4986854;28;25051;-73
2022/11/24 07:06:15;;;;;;;9.93;2.90;;;14.20;99.90;;;;;;4997892;28;25102;-74
2022/11/24 07:08:40;;;;;;;5.82;2.88;;;14.30;99.90;;;;;;4989170;28;25073;-74
2022/11/24 07:11:08;;;;;;;9.55;2.72;;;14.10;99.90;;;;;;4987603;28;25074;-73
2022/11/24 07:13:34;;;;;;;10.55;3.80;;;14.10;99.90;;;;;;4999254;28;25065;-74
2022/11/24 07:16:08;;;;;;;12.85;2.60;;;14.10;99.90;;;;;;4996342;28;25215;-73
2022/11/24 07:18:34;;;;;;;6.75;2.40;;;14.20;99.90;;;;;;5006950;28;25134;-75
2022/11/24 07:21:03;;;;;;;12.27;2.67;;;14.10;99.90;;;;;;4986978;28;25141;-74
2022/11/24 07:23:28;;;;;;;5.95;1.90;;;14.00;99.90;;;;;;4997113;28;25140;-74
2022/11/24 07:25:54;;;;;;;4.82;2.22;;;14.00;99.90;;;;;;5010126;28;25051;-73
2022/11/24 07:28:20;;;;;;;10.73;2.03;;;14.00;99.90;;;;;;5009269;28;25138;-74
2022/11/24 07:30:46;;;;;;;15.85;2.53;;;14.00;99.90;;;;;;5024830;28;25067;-74
2022/11/24 07:33:11;;;;;;;7.45;2.60;;;14.10;99.90;;;;;;5003929;28;25064;-75
2022/11/24 07:35:37;;;;;;;10.68;2.60;;;14.10;99.90;;;;;;4990778;28;25491;-75
2022/11/24 07:38:02;;;;;;;14.00;2.55;;;14.10;99.90;;;;;;4993420;28;25057;-74
2022/11/24 07:40:28;;;;;;;10.40;2.80;;;14.10;99.90;;;;;;4987690;28;25071;-75
2022/11/24 07:42:54;;;;;;;5.03;2.05;;;14.00;99.90;;;;;;4992411;28;25083;-74
2022/11/24 07:45:20;;;;;;;15.77;3.03;;;13.90;99.90;;;;;;4993534;28;25082;-75
2022/11/24 07:47:45;;;;;;;11.73;2.28;;;13.90;99.90;;;;;;5002167;28;25147;-74
2022/11/24 07:50:12;;;;;;;12.13;3.03;;;14.00;99.90;;;;;;5027698;28;25064;-74
2022/11/24 07:52:37;;;;;;;10.65;1.98;;;14.10;99.90;;;;;;5018581;28;25069;-76
2022/11/24 07:55:04;;;;;;;12.57;2.13;;;14.10;99.90;;;;;;5001445;28;25095;-74
2022/11/24 07:57:29;;;;;;;13.98;3.47;;;14.10;99.90;;;;;;4992495;28;25056;-74
2022/11/24 07:59:55;;;;;;;8.63;2.13;;;14.00;99.90;;;;;;4994104;28;25073;-73
2022/11/24 08:02:21;;;;;;;15.18;2.15;;;14.00;99.90;;;;;;4986249;28;25154;-74
2022/11/24 08:04:47;;;;;;;13.32;2.20;;;14.10;99.90;;;;;;4998537;28;25072;-74
2022/11/24 08:07:12;;;;;;;12.73;2.00;;;14.10;99.90;;;;;;4996611;28;25113;-74
2022/11/24 08:09:38;;;;;;;12.77;2.47;;;14.10;99.90;;;;;;4976451;28;25067;-75
2022/11/24 08:12:04;;;;;;;14.02;2.33;;;14.20;99.90;;;;;;4982529;28;25118;-73
2022/11/24 08:14:29;;;;;;;12.07;2.50;;;14.20;99.90;;;;;;4988781;28;25056;-74
2022/11/24 08:16:56;;;;;;;11.82;1.67;;;14.10;99.90;;;;;;5008697;28;25100;-75
2022/11/24 08:19:21;;;;;;;12.60;2.75;;;14.00;99.90;;;;;;4988813;28;25047;-74
2022/11/24 08:21:47;;;;;;;9.90;2.20;;;14.00;99.90;;;;;;5005893;28;25064;-75
2022/11/24 08:24:14;;;;;;;9.07;2.03;;;14.00;99.90;;;;;;5004334;28;25163;-75
2022/11/24 08:26:40;;;;;;;8.85;1.73;;;14.10;99.90;;;;;;5004944;28;25060;-75
2022/11/24 08:29:06;;;;;;;15.27;2.28;;;14.10;99.90;;;;;;5008197;28;25053;-76
2022/11/24 08:31:33;;;;;;;16.77;2.17;;;14.10;99.90;;;;;;4994573;28;25088;-74
2022/11/24 08:33:59;;;;;;;14.98;2.45;;;14.00;99.90;;;;;;5001056;28;25076;-74
2022/11/24 08:36:25;;;;;;;9.80;1.98;;;14.10;99.90;;;;;;4969387;28;25059;-74
2022/11/24 08:38:55;;;;;;;14.60;2.47;;;14.10;99.90;;;;;;5006423;28;25071;-74
2022/11/24 08:41:22;;;;;;;11.18;2.33;;;14.00;99.90;;;;;;4991838;28;25087;-75
2022/11/24 08:43:47;;;;;;;15.95;2.22;;;14.10;99.90;;;;;;4988191;28;25139;-75
2022/11/24 08:46:18;;;;;;;9.57;1.85;;;14.10;99.90;;;;;;4988553;28;25050;-73
2022/11/24 08:48:52;;;;;;;10.18;1.92;;;14.00;99.90;;;;;;5022795;28;25073;-71
2022/11/24 08:51:21;;;;;;;12.50;2.20;;;13.90;99.90;;;;;;4991666;28;25169;-75
2022/11/24 08:53:46;;;;;;;13.02;1.67;;;13.80;99.90;;;;;;5002949;28;25060;-75
2022/11/24 08:56:12;;;;;;;9.60;1.83;;;13.80;99.90;;;;;;4992944;28;25101;-75
2022/11/24 08:58:39;;;;;;;16.15;3.75;;;13.80;99.90;;;;;;4990665;28;25077;-75
2022/11/24 09:01:07;;;;;;;10.82;2.30;;;13.90;99.90;;;;;;4988264;28;25143;-72
2022/11/24 09:03:33;;;;;;;6.28;2.15;;;13.80;99.90;;;;;;5001576;28;25142;-76
2022/11/24 09:06:00;;;;;;;14.73;2.60;;;13.90;99.90;;;;;;4994583;28;25076;-75
2022/11/24 09:08:26;;;;;;;19.02;2.38;;;13.80;99.90;;;;;;4987336;28;25094;-75
2022/11/24 09:10:51;;;;;;;14.38;2.50;;;13.80;99.90;;;;;;5008750;28;25058;-74
2022/11/24 09:13:17;;;;;;;8.57;2.05;;;13.70;99.90;;;;;;4993098;28;25062;-75
2022/11/24 09:15:42;;;;;;;7.18;1.80;;;13.60;99.90;;;;;;4990713;28;25094;-73
2022/11/24 09:18:08;;;;;;;11.35;2.80;;;13.50;99.90;;;;;;4989812;28;25138;-76
2022/11/24 09:20:34;;;;;;;12.57;3.20;;;13.50;99.90;;;;;;4985937;28;25109;-75
2022/11/24 09:22:59;;;;;;;13.90;2.72;;;13.50;99.90;;;;;;4991264;28;25054;-75
2022/11/24 09:25:25;;;;;;;7.80;2.50;;;13.50;99.90;;;;;;4992146;28;25080;-75
2022/11/24 09:27:51;;;;;;;9.60;2.58;;;13.30;99.90;;;;;;4994509;28;25079;-75
2022/11/24 09:30:17;;;;;;;24.67;3.45;;;13.10;99.90;;;;;;5012374;28;25093;-75
2022/11/24 09:32:42;;;;;;;13.38;3.00;;;13.00;99.90;;;;;;4991370;28;25089;-74
2022/11/24 09:35:08;;;;;;;17.00;3.17;;;12.90;99.90;;;;;;4980308;28;25058;-76
2022/11/24 09:37:34;;;;;;;15.00;3.65;;;12.90;99.90;;;;;;5007427;28;25495;-76
2022/11/24 09:40:00;;;;;;;17.00;3.78;;;12.80;99.90;;;;;;4994292;28;25104;-76
2022/11/24 09:42:47;;;;;;;14.35;3.30;;;12.80;99.90;;;;;;4989804;28;25064;-76
2022/11/24 09:45:27;;;;;;;18.27;3.38;;;12.80;99.90;;;;;;4988273;28;25101;-77
2022/11/24 09:48:02;;;;;;;16.05;3.05;;;12.70;99.90;;;;;;4994300;28;25080;-75
2022/11/24 09:50:35;;;;;;;27.38;4.22;;;12.60;99.90;;;;;;4984234;28;25115;-76
2022/11/24 09:53:28;;;;;;;14.88;2.75;;;12.50;99.90;;;;;;4983457;28;25107;-75
2022/11/24 09:56:20;;;;;;;15.52;3.05;;;12.60;99.90;;;;;;4985698;28;25118;-75
2022/11/24 09:58:52;;;;;;;22.40;4.17;;;12.50;99.90;;;;;;4976405;28;25071;-74
2022/11/24 10:01:23;;;;;;;22.70;4.63;;;12.30;99.90;;;;;;4984686;28;25174;-76
2022/11/24 10:03:52;;;;;;;16.60;3.70;;;12.20;99.90;;;;;;4986878;28;25058;-76
2022/11/24 10:06:21;;;;;;;13.02;3.13;;;12.00;99.90;;;;;;4985810;28;25128;-75
2022/11/24 10:08:52;;;;;;;11.65;2.85;;;12.10;99.90;;;;;;4999678;28;25121;-75
2022/11/24 10:11:43;;;;;;;9.18;2.90;;;12.30;99.90;;;;;;4983805;28;25231;-75
2022/11/24 10:14:21;;;;;;;17.10;3.28;;;12.20;99.90;;;;;;4950179;28;24526;-76
2022/11/24 10:16:55;;;;;;;9.88;2.55;;;12.10;99.90;;;;;;4987870;28;25156;-76
2022/11/24 10:19:44;;;;;;;12.13;2.80;;;12.20;99.90;;;;;;4985522;28;25164;-76
2022/11/24 10:22:19;;;;;;;16.42;3.10;;;12.20;99.90;;;;;;4986428;28;25066;-75
2022/11/24 10:25:06;;;;;;;13.15;3.10;;;12.20;99.90;;;;;;5009863;28;25058;-76
2022/11/24 10:27:47;;;;;;;9.30;2.53;;;12.10;99.90;;;;;;4997204;28;25119;-77
2022/11/24 10:30:19;;;;;;;20.88;3.38;;;12.10;99.90;;;;;;4992096;28;25056;-74
2022/11/24 10:32:54;;;;;;;17.75;3.95;;;12.00;99.90;;;;;;4995213;28;25086;-73
2022/11/24 10:35:26;;;;;;;21.65;3.30;;;11.90;99.90;;;;;;4998166;28;25105;-75
2022/11/24 10:38:20;;;;;;;25.63;3.50;;;11.80;99.90;;;;;;5000832;28;25170;-74
2022/11/24 10:40:58;;;;;;;16.33;3.33;;;11.80;99.90;;;;;;4993538;28;25101;-73
2022/11/24 10:43:27;;;;;;;15.90;3.05;;;11.90;99.90;;;;;;4999486;28;25100;-77
2022/11/24 10:45:58;;;;;;;14.77;2.50;;;11.80;99.90;;;;;;5000078;28;25148;-73
2022/11/24 10:48:26;;;;;;;14.52;3.42;;;11.90;99.90;;;;;;5009154;28;25082;-74
2022/11/24 10:50:55;;;;;;;16.85;3.92;;;11.90;99.90;;;;;;5000019;28;25101;-74
2022/11/24 10:53:26;;;;;;;18.23;2.70;;;11.80;99.90;;;;;;4989287;28;25070;-74
2022/11/24 10:55:55;;;;;;;11.93;3.03;;;11.90;99.90;;;;;;5010406;28;25056;-75
2022/11/24 10:58:36;;;;;;;17.15;3.03;;;11.90;99.90;;;;;;4993272;28;25083;-72
2022/11/24 11:01:20;;;;;;;15.93;2.95;;;12.00;99.90;;;;;;4988203;28;25098;-74
2022/11/24 11:03:57;;;;;;;18.10;3.10;;;11.90;99.90;;;;;;4984125;28;25067;-74
2022/11/24 11:06:24;;;;;;;12.85;2.90;;;11.90;99.90;;;;;;5006893;28;25173;-72
2022/11/24 11:09:13;;;;;;;16.48;3.13;;;12.10;99.90;;;;;;5001217;28;25091;-74
2022/11/24 11:11:40;;;;;;;12.40;2.85;;;12.30;99.90;;;;;;4988241;28;25074;-74
2022/11/24 11:14:08;;;;;;;14.30;3.38;;;12.50;99.90;;;;;;4989583;28;25136;-75
2022/11/24 11:16:34;;;;;;;13.35;2.72;;;12.70;99.90;;;;;;4995375;28;25082;-73
2022/11/24 11:19:02;;;;;;;10.35;2.95;;;12.70;99.90;;;;;;4990371;28;25120;-73
2022/11/24 11:21:31;;;;;;;17.55;3.65;;;12.70;99.90;;;;;;4996851;28;25158;-74
2022/11/24 11:23:57;;;;;;;15.10;3.58;;;12.80;99.90;;;;;;4989990;28;25060;-73
2022/11/24 11:26:23;;;;;;;18.23;3.42;;;12.60;99.90;;;;;;5003630;28;25164;-74
2022/11/24 11:29:03;;;;;;;15.30;3.35;;;12.50;99.90;;;;;;5000286;28;25096;-73
2022/11/24 11:31:31;;;;;;;17.17;3.42;;;12.50;99.90;;;;;;5007186;28;25105;-72
2022/11/24 11:34:08;;;;;;;20.00;3.33;;;12.50;99.90;;;;;;5006633;28;25184;-72
2022/11/24 11:36:39;;;;;;;13.38;3.22;;;12.60;99.90;;;;;;5010215;28;25103;-75
2022/11/24 11:39:04;;;;;;;19.23;3.25;;;12.70;99.90;;;;;;5009365;28;25067;-72
2022/11/24 11:41:37;;;;;;;13.20;3.15;;;13.00;99.90;;;;;;4995760;28;25137;-74
2022/11/24 11:44:30;;;;;;;19.38;3.28;;;13.10;99.90;;;;;;4992971;28;25050;-75
2022/11/24 11:46:58;;;;;;;20.27;4.10;;;13.00;99.90;;;;;;4987573;28;25084;-74
2022/11/24 11:49:24;;;;;;;20.80;3.47;;;12.90;99.90;;;;;;4992891;28;25178;-75
2022/11/24 11:52:03;;;;;;;9.38;2.70;;;12.90;99.90;;;;;;4990645;28;25081;-74
2022/11/24 11:54:37;;;;;;;14.25;2.75;;;12.90;99.90;;;;;;5004038;28;25052;-75
2022/11/24 11:57:29;;;;;;;12.63;2.95;;;13.00;99.90;;;;;;4994453;28;25114;-74
2022/11/24 12:00:17;;;;;;;17.75;3.50;;;13.00;99.90;;;;;;4978046;28;25059;-75
2022/11/24 12:03:24;;;;;;;13.02;3.05;;;13.10;99.90;;;;;;4984290;28;25065;-74
2022/11/24 12:05:58;;;;;;;15.35;2.70;;;13.30;99.90;;;;;;4988290;28;25066;-75
2022/11/24 12:08:26;;;;;;;12.93;3.17;;;13.40;99.90;;;;;;5000179;28;25152;-73
2022/11/24 12:11:09;;;;;;;17.48;3.70;;;13.40;99.90;;;;;;4984961;28;25111;-74
2022/11/24 12:13:39;;;;;;;18.15;4.10;;;13.30;99.90;;;;;;4994760;28;25095;-73
2022/11/24 12:16:29;;;;;;;10.73;3.13;;;13.10;99.90;;;;;;4985171;28;25109;-74
2022/11/24 12:19:03;;;;;;;18.52;3.28;;;13.40;99.90;;;;;;4985622;28;25108;-73
2022/11/24 12:21:42;;;;;;;12.55;3.22;;;13.50;99.90;;;;;;5001057;28;25108;-75
2022/11/24 12:24:12;;;;;;;18.73;3.35;;;13.30;99.90;;;;;;4986330;28;25075;-74
2022/11/24 12:26:56;;;;;;;22.00;3.42;;;13.30;99.90;;;;;;4998731;28;25050;-74
2022/11/24 12:29:43;;;;;;;15.18;3.65;;;13.40;99.90;;;;;;4988621;28;25089;-73
2022/11/24 12:32:47;;;;;;;13.38;3.15;;;13.60;99.90;;;;;;4995050;28;25065;-75
2022/11/24 12:35:34;;;;;;;13.50;3.42;;;13.70;99.90;;;;;;4986875;28;25113;-75
2022/11/24 12:38:03;;;;;;;7.60;2.53;;;13.80;99.90;;;;;;4979473;28;25102;-77
2022/11/24 12:40:37;;;;;;;18.58;3.75;;;13.90;99.90;;;;;;4993514;28;25065;-76
2022/11/24 12:43:23;;;;;;;20.75;3.20;;;14.00;99.90;;;;;;4996292;28;25109;-76
2022/11/24 12:46:00;;;;;;;26.55;3.83;;;13.80;99.90;;;;;;4999025;28;25052;-74
2022/11/24 12:48:52;;;;;;;12.00;3.22;;;13.90;99.90;;;;;;5009147;28;25166;-74
2022/11/24 12:51:22;;;;;;;6.35;2.63;;;13.70;99.90;;;;;;5004220;28;25050;-74